createdAt,value
2023-08-31T00:02:05.791Z,12.92
2023-08-31T00:04:32.871Z,12.83
2023-08-31T00:06:59.791Z,12.74
2023-08-31T00:09:26.941Z,12.66
2023-08-31T00:11:53.939Z,12.64
2023-08-31T00:14:21.038Z,12.64
2023-08-31T00:16:48.055Z,12.56
2023-08-31T00:19:16.314Z,12.55
2023-08-31T00:21:44.114Z,12.60
2023-08-31T00:24:11.743Z,12.60
2023-08-31T00:26:44.623Z,12.68
2023-08-31T00:29:17.750Z,12.67
2023-08-31T00:31:45.916Z,12.61
2023-08-31T00:34:15.957Z,12.58
2023-08-31T00:36:44.991Z,12.60
2023-08-31T00:39:12.212Z,12.60
2023-08-31T00:41:40.382Z,12.63
2023-08-31T00:44:08.277Z,12.63
2023-08-31T00:46:36.263Z,12.70
2023-08-31T00:49:05.416Z,12.71
2023-08-31T00:51:32.658Z,12.72
2023-08-31T00:54:00.438Z,12.66
2023-08-31T00:56:28.193Z,12.66
2023-08-31T00:58:55.811Z,12.59
2023-08-31T01:01:39.563Z,12.49
2023-08-31T01:04:21.423Z,12.45
2023-08-31T01:07:01.864Z,12.39
2023-08-31T01:09:42.105Z,12.36
2023-08-31T01:12:31.082Z,12.30
2023-08-31T01:15:03.597Z,12.20
2023-08-31T01:17:31.176Z,12.21
2023-08-31T01:20:00.570Z,12.25
2023-08-31T01:22:43.725Z,12.25
2023-08-31T01:25:11.053Z,12.26
2023-08-31T01:27:38.905Z,12.25
2023-08-31T01:30:07.015Z,12.22
2023-08-31T01:32:34.417Z,12.24
2023-08-31T01:35:02.844Z,12.19
2023-08-31T01:37:37.207Z,12.13
2023-08-31T01:40:12.046Z,12.15
2023-08-31T01:42:40.233Z,12.14
2023-08-31T01:45:08.253Z,12.21
2023-08-31T01:47:35.477Z,12.24
2023-08-31T01:50:03.146Z,12.32
2023-08-31T01:52:30.272Z,12.34
2023-08-31T01:54:57.406Z,12.44
2023-08-31T01:57:24.824Z,12.50
2023-08-31T02:00:07.250Z,12.49
2023-08-31T02:02:41.603Z,12.44
2023-08-31T02:05:09.142Z,12.39
2023-08-31T02:07:36.099Z,12.35
2023-08-31T02:10:04.215Z,12.31
2023-08-31T02:12:31.143Z,12.26
2023-08-31T02:14:59.514Z,12.21
2023-08-31T02:17:27.747Z,12.17
2023-08-31T02:19:54.701Z,12.15
2023-08-31T02:22:21.712Z,12.11
2023-08-31T02:24:48.833Z,12.16
2023-08-31T02:27:15.871Z,12.16
2023-08-31T02:29:42.880Z,12.25
2023-08-31T02:32:10.453Z,12.25
2023-08-31T02:34:37.621Z,12.27
2023-08-31T02:37:06.975Z,12.25
2023-08-31T02:39:33.960Z,12.31
2023-08-31T02:42:01.063Z,12.38
2023-08-31T02:44:28.211Z,12.42
2023-08-31T02:46:55.096Z,12.35
2023-08-31T02:49:22.192Z,12.34
2023-08-31T02:51:50.546Z,12.45
2023-08-31T02:54:17.689Z,12.63
2023-08-31T02:56:44.667Z,12.53
2023-08-31T02:59:11.794Z,12.51
2023-08-31T03:01:40.377Z,12.51
2023-08-31T03:04:07.787Z,12.60
2023-08-31T03:06:34.785Z,12.56
2023-08-31T03:09:03.520Z,12.59
2023-08-31T03:11:31.959Z,12.70
2023-08-31T03:13:59.043Z,12.74
2023-08-31T03:16:26.065Z,12.87
2023-08-31T03:18:53.074Z,13.00
2023-08-31T03:21:21.193Z,12.95
2023-08-31T03:23:48.355Z,12.90
2023-08-31T03:26:15.247Z,12.77
2023-08-31T03:28:42.445Z,12.66
2023-08-31T03:31:09.516Z,12.57
2023-08-31T03:33:36.743Z,12.49
2023-08-31T03:36:05.888Z,12.40
2023-08-31T03:38:44.064Z,12.29
2023-08-31T03:41:11.133Z,12.28
2023-08-31T03:43:39.927Z,12.24
2023-08-31T03:46:07.069Z,12.25
2023-08-31T03:48:34.116Z,12.19
2023-08-31T03:51:01.266Z,12.17
2023-08-31T03:53:28.154Z,12.19
2023-08-31T03:55:58.213Z,12.20
2023-08-31T03:58:26.065Z,12.24
2023-08-31T04:00:55.627Z,12.25
2023-08-31T04:03:23.610Z,12.28
2023-08-31T04:05:55.845Z,12.27
2023-08-31T04:08:22.855Z,12.31
2023-08-31T04:10:49.749Z,12.34
2023-08-31T04:13:16.788Z,12.34
2023-08-31T04:15:43.794Z,12.30
2023-08-31T04:18:11.052Z,12.29
2023-08-31T04:20:38.313Z,12.29
2023-08-31T04:23:05.203Z,12.31
2023-08-31T04:25:32.831Z,12.29
2023-08-31T04:27:59.735Z,12.29
2023-08-31T04:30:28.144Z,12.29
2023-08-31T04:32:55.429Z,12.26
2023-08-31T04:35:22.442Z,12.25
2023-08-31T04:37:49.593Z,12.25
2023-08-31T04:40:16.683Z,12.33
2023-08-31T04:42:44.263Z,12.33
2023-08-31T04:45:13.580Z,12.38
2023-08-31T04:47:40.649Z,12.37
2023-08-31T04:50:08.707Z,12.43
2023-08-31T04:52:36.237Z,12.42
2023-08-31T04:55:09.013Z,12.39
2023-08-31T04:57:36.469Z,12.35
2023-08-31T05:00:04.742Z,12.26
2023-08-31T05:02:31.798Z,12.22
2023-08-31T05:04:58.773Z,12.13
2023-08-31T05:07:25.796Z,12.05
2023-08-31T05:09:52.783Z,11.96
2023-08-31T05:12:19.835Z,11.96
2023-08-31T05:14:46.786Z,11.93
2023-08-31T05:17:13.874Z,11.93
2023-08-31T05:19:40.848Z,11.88
2023-08-31T05:22:07.932Z,11.80
2023-08-31T05:24:34.876Z,11.76
2023-08-31T05:27:01.910Z,11.78
2023-08-31T05:29:28.863Z,11.80
2023-08-31T05:31:56.034Z,11.86
2023-08-31T05:34:24.604Z,11.85
2023-08-31T05:36:51.739Z,11.80
2023-08-31T05:39:18.709Z,11.85
2023-08-31T05:41:45.878Z,11.86
2023-08-31T05:44:12.836Z,11.87
2023-08-31T05:46:41.963Z,11.88
2023-08-31T05:49:09.233Z,11.86
2023-08-31T05:51:36.543Z,11.86
2023-08-31T05:54:04.715Z,11.90
2023-08-31T05:56:34.904Z,11.93
2023-08-31T05:59:03.360Z,12.01
2023-08-31T06:01:30.265Z,12.21
2023-08-31T06:03:57.305Z,12.34
2023-08-31T06:06:24.407Z,12.46
2023-08-31T06:08:51.412Z,12.46
2023-08-31T06:11:18.616Z,12.50
2023-08-31T06:13:45.463Z,12.45
2023-08-31T06:16:12.870Z,12.41
2023-08-31T06:18:39.866Z,12.36
2023-08-31T06:21:06.931Z,12.34
2023-08-31T06:23:33.773Z,12.38
2023-08-31T06:26:00.874Z,12.48
2023-08-31T06:28:27.945Z,12.56
2023-08-31T06:30:54.930Z,12.58
2023-08-31T06:33:23.173Z,12.63
2023-08-31T06:35:53.357Z,12.68
2023-08-31T06:38:21.124Z,12.79
2023-08-31T06:40:48.536Z,12.81
2023-08-31T06:43:15.741Z,12.83
2023-08-31T06:45:43.154Z,12.93
2023-08-31T06:48:10.400Z,13.03
2023-08-31T06:50:37.439Z,13.22
2023-08-31T06:53:04.709Z,13.41
2023-08-31T06:55:33.515Z,13.65
2023-08-31T06:58:02.151Z,14.00
2023-08-31T07:00:29.475Z,14.18
2023-08-31T07:02:56.653Z,14.28
2023-08-31T07:05:27.115Z,14.34
2023-08-31T07:07:55.498Z,14.16
2023-08-31T07:10:23.239Z,14.03
2023-08-31T07:12:50.288Z,13.87
2023-08-31T07:15:17.649Z,13.81
2023-08-31T07:17:44.817Z,13.69
2023-08-31T07:20:12.975Z,13.61
2023-08-31T07:22:41.478Z,13.56
2023-08-31T07:25:08.836Z,13.55
2023-08-31T07:27:35.986Z,13.62
2023-08-31T07:30:04.477Z,13.69
2023-08-31T07:32:31.533Z,13.72
2023-08-31T07:34:58.660Z,13.83
2023-08-31T07:37:25.723Z,14.04
2023-08-31T07:39:52.672Z,14.15
2023-08-31T07:42:19.728Z,14.20
2023-08-31T07:44:46.687Z,14.17
2023-08-31T07:47:14.124Z,14.05
2023-08-31T07:49:41.072Z,14.03
2023-08-31T07:52:08.117Z,13.97
2023-08-31T07:54:35.246Z,14.03
2023-08-31T07:57:02.136Z,14.11
2023-08-31T07:59:29.231Z,14.22
2023-08-31T08:01:56.226Z,14.44
2023-08-31T08:04:23.533Z,14.73
2023-08-31T08:06:52.162Z,15.02
2023-08-31T08:09:19.099Z,15.05
2023-08-31T08:11:46.067Z,14.97
2023-08-31T08:14:12.917Z,14.91
2023-08-31T08:16:40.017Z,14.92
2023-08-31T08:19:07.935Z,15.06
2023-08-31T08:21:35.980Z,15.22
2023-08-31T08:24:03.047Z,15.26
2023-08-31T08:26:30.169Z,15.32
2023-08-31T08:28:57.190Z,15.47
2023-08-31T08:31:25.407Z,15.57
2023-08-31T08:33:52.920Z,15.68
2023-08-31T08:36:19.879Z,15.66
2023-08-31T08:38:46.786Z,15.69
2023-08-31T08:41:15.146Z,15.78
2023-08-31T08:43:44.960Z,15.89
2023-08-31T08:46:12.263Z,15.83
2023-08-31T08:48:39.500Z,15.97
2023-08-31T08:51:07.209Z,15.97
2023-08-31T08:53:34.813Z,16.16
2023-08-31T08:56:01.720Z,16.21
2023-08-31T08:58:28.810Z,16.30
2023-08-31T09:00:59.203Z,16.24
2023-08-31T09:03:26.238Z,16.33
2023-08-31T09:05:56.181Z,16.67
2023-08-31T09:08:30.473Z,17.12
2023-08-31T09:11:01.144Z,17.01
2023-08-31T09:13:32.441Z,16.72
2023-08-31T09:15:59.614Z,16.44
2023-08-31T09:18:27.472Z,16.26
2023-08-31T09:20:57.978Z,16.02
2023-08-31T09:23:25.984Z,15.72
2023-08-31T09:25:55.069Z,15.83
2023-08-31T09:28:24.184Z,16.28
2023-08-31T09:30:53.365Z,17.10
2023-08-31T09:33:24.576Z,17.86
2023-08-31T09:35:53.646Z,18.67
2023-08-31T09:38:20.990Z,19.30
2023-08-31T09:40:48.134Z,19.68
2023-08-31T09:43:22.539Z,19.48
2023-08-31T09:45:50.348Z,19.16
2023-08-31T09:48:18.016Z,19.07
2023-08-31T09:50:49.063Z,18.50
2023-08-31T09:53:18.236Z,17.69
2023-08-31T09:55:45.350Z,17.38
2023-08-31T09:58:16.351Z,17.48
2023-08-31T10:00:45.295Z,17.47
2023-08-31T10:03:18.931Z,17.20
2023-08-31T10:05:48.352Z,17.74
2023-08-31T10:08:16.441Z,17.76
2023-08-31T10:10:44.213Z,17.44
2023-08-31T10:13:13.116Z,17.08
2023-08-31T10:15:41.073Z,16.91
2023-08-31T10:18:08.864Z,16.61
2023-08-31T10:20:36.557Z,16.54
2023-08-31T10:23:04.814Z,16.51
2023-08-31T10:25:47.042Z,16.85
2023-08-31T10:28:24.361Z,17.11
2023-08-31T10:31:04.897Z,16.92
2023-08-31T10:33:41.940Z,16.73
2023-08-31T10:36:19.801Z,16.57
2023-08-31T10:38:58.651Z,17.05
2023-08-31T10:41:27.063Z,16.81
2023-08-31T10:44:00.950Z,16.55
2023-08-31T10:46:32.103Z,16.30
2023-08-31T10:49:07.444Z,16.50
2023-08-31T10:51:34.578Z,17.89
2023-08-31T10:54:22.418Z,19.02
2023-08-31T10:57:05.469Z,20.42
2023-08-31T10:59:46.357Z,20.72
2023-08-31T11:02:43.767Z,20.73
2023-08-31T11:05:18.839Z,20.73
2023-08-31T11:07:50.976Z,20.71
2023-08-31T11:10:24.910Z,21.47
2023-08-31T11:12:54.239Z,21.18
2023-08-31T11:15:23.571Z,21.71
2023-08-31T11:17:55.286Z,22.29
2023-08-31T11:20:23.719Z,22.11
2023-08-31T11:22:52.004Z,22.49
2023-08-31T11:25:19.536Z,22.20
2023-08-31T11:27:55.528Z,22.23
2023-08-31T11:30:22.507Z,22.44
2023-08-31T11:32:53.049Z,22.63
2023-08-31T11:35:21.501Z,22.27
2023-08-31T11:37:51.984Z,22.22
2023-08-31T11:40:19.115Z,22.05
2023-08-31T11:42:47.074Z,21.60
2023-08-31T11:45:15.093Z,22.10
2023-08-31T11:47:43.114Z,22.60
2023-08-31T11:50:10.382Z,22.47
2023-08-31T11:52:39.449Z,22.80
2023-08-31T11:55:15.001Z,22.44
2023-08-31T11:57:42.141Z,21.97
2023-08-31T12:00:12.153Z,21.54
2023-08-31T12:02:39.266Z,21.40
2023-08-31T12:05:06.872Z,21.88
2023-08-31T12:07:34.110Z,22.08
2023-08-31T12:10:05.001Z,22.04
2023-08-31T12:12:33.967Z,22.15
2023-08-31T12:15:05.033Z,22.70
2023-08-31T12:17:32.198Z,22.53
2023-08-31T12:20:06.326Z,22.52
2023-08-31T12:22:33.486Z,22.45
2023-08-31T12:25:00.364Z,22.17
2023-08-31T12:27:27.535Z,22.51
2023-08-31T12:29:54.452Z,22.82
2023-08-31T12:32:21.436Z,22.17
2023-08-31T12:34:48.337Z,21.81
2023-08-31T12:37:15.384Z,21.84
2023-08-31T12:39:45.996Z,22.26
2023-08-31T12:42:22.446Z,22.66
2023-08-31T12:44:51.286Z,22.75
2023-08-31T12:47:18.377Z,23.10
2023-08-31T12:49:45.355Z,23.00
2023-08-31T12:52:12.208Z,22.61
2023-08-31T12:54:39.234Z,22.21
2023-08-31T12:57:06.588Z,22.37
2023-08-31T12:59:33.829Z,22.52
2023-08-31T13:02:01.249Z,22.16
2023-08-31T13:04:28.206Z,22.27
2023-08-31T13:06:55.956Z,22.22
2023-08-31T13:09:23.131Z,21.97
2023-08-31T13:11:50.729Z,22.31
2023-08-31T13:14:17.797Z,22.14
2023-08-31T13:16:44.747Z,21.55
2023-08-31T13:19:11.777Z,21.40
2023-08-31T13:21:38.741Z,21.71
2023-08-31T13:24:06.238Z,22.48
2023-08-31T13:26:33.177Z,21.86
2023-08-31T13:29:01.430Z,22.53
2023-08-31T13:31:30.123Z,23.40
2023-08-31T13:33:57.098Z,22.43
2023-08-31T13:36:24.129Z,22.61
2023-08-31T13:38:51.025Z,22.48
2023-08-31T13:41:18.793Z,22.61
2023-08-31T13:43:45.712Z,22.43
2023-08-31T13:46:13.400Z,22.99
2023-08-31T13:48:40.424Z,23.78
2023-08-31T13:51:07.348Z,22.46
2023-08-31T13:53:34.567Z,22.17
2023-08-31T13:56:01.467Z,21.75
2023-08-31T13:58:28.617Z,22.01
2023-08-31T14:00:55.696Z,21.64
2023-08-31T14:03:22.820Z,21.64
2023-08-31T14:05:50.566Z,21.75
2023-08-31T14:08:17.625Z,21.84
2023-08-31T14:10:44.533Z,22.19
2023-08-31T14:13:11.509Z,21.51
2023-08-31T14:15:45.349Z,20.96
2023-08-31T14:18:12.744Z,21.30
2023-08-31T14:20:40.248Z,21.32
2023-08-31T14:23:07.566Z,21.01
2023-08-31T14:25:39.500Z,21.27
2023-08-31T14:28:06.614Z,21.19
2023-08-31T14:30:33.920Z,21.16
2023-08-31T14:33:00.774Z,20.40
2023-08-31T14:35:28.872Z,20.15
2023-08-31T14:37:55.736Z,20.19
2023-08-31T14:40:22.836Z,19.90
2023-08-31T14:42:49.918Z,19.58
2023-08-31T14:45:17.080Z,19.28
2023-08-31T14:47:44.087Z,19.06
2023-08-31T14:50:11.018Z,18.71
2023-08-31T14:52:38.159Z,18.57
2023-08-31T14:55:05.499Z,18.55
2023-08-31T14:57:32.677Z,18.55
2023-08-31T15:00:03.058Z,18.43
2023-08-31T15:02:30.833Z,18.24
2023-08-31T15:04:57.926Z,18.28
2023-08-31T15:07:24.968Z,18.37
2023-08-31T15:09:53.752Z,18.37
2023-08-31T15:12:20.753Z,18.37
2023-08-31T15:14:47.904Z,18.20
2023-08-31T15:17:16.033Z,18.16
2023-08-31T15:19:43.369Z,18.29
2023-08-31T15:22:10.314Z,18.32
2023-08-31T15:24:37.944Z,18.40
2023-08-31T15:27:05.149Z,18.39
2023-08-31T15:29:32.880Z,18.30
2023-08-31T15:32:00.650Z,18.30
2023-08-31T15:34:28.509Z,18.24
2023-08-31T15:36:55.477Z,18.24
2023-08-31T15:39:23.573Z,18.13
2023-08-31T15:41:50.539Z,18.08
2023-08-31T15:44:17.397Z,18.12
2023-08-31T15:46:45.009Z,18.06
2023-08-31T15:49:11.925Z,17.97
2023-08-31T15:51:38.999Z,17.87
2023-08-31T15:54:06.618Z,17.87
2023-08-31T15:56:33.984Z,17.81
2023-08-31T15:59:00.935Z,17.72
2023-08-31T16:01:28.670Z,17.72
2023-08-31T16:03:55.576Z,17.73
2023-08-31T16:06:23.678Z,17.66
2023-08-31T16:08:50.768Z,17.60
2023-08-31T16:11:17.844Z,17.50
2023-08-31T16:13:44.955Z,17.49
2023-08-31T16:16:12.072Z,17.44
2023-08-31T16:18:39.484Z,17.50
2023-08-31T16:21:06.375Z,17.42
2023-08-31T16:23:33.484Z,17.36
2023-08-31T16:26:00.469Z,17.37
2023-08-31T16:28:27.400Z,17.27
2023-08-31T16:30:54.532Z,17.20
2023-08-31T16:33:21.546Z,17.24
2023-08-31T16:35:49.812Z,17.27
2023-08-31T16:38:18.673Z,17.21
2023-08-31T16:40:46.697Z,17.15
2023-08-31T16:43:13.796Z,17.07
2023-08-31T16:45:40.680Z,17.02
2023-08-31T16:48:07.971Z,16.98
2023-08-31T16:50:36.482Z,16.91
2023-08-31T16:53:04.551Z,16.78
2023-08-31T16:55:32.021Z,16.71
2023-08-31T16:58:00.090Z,16.62
2023-08-31T17:00:27.564Z,16.61
2023-08-31T17:02:54.640Z,16.62
2023-08-31T17:05:23.075Z,16.60
2023-08-31T17:07:50.289Z,16.62
2023-08-31T17:10:17.415Z,16.60
2023-08-31T17:12:44.527Z,16.56
2023-08-31T17:15:11.624Z,16.59
2023-08-31T17:17:39.008Z,16.55
2023-08-31T17:20:07.295Z,16.48
2023-08-31T17:22:35.024Z,16.45
2023-08-31T17:25:02.342Z,16.41
2023-08-31T17:27:30.239Z,16.43
2023-08-31T17:29:57.364Z,16.41
2023-08-31T17:32:24.467Z,16.34
2023-08-31T17:34:51.362Z,16.31
2023-08-31T17:37:18.317Z,16.23
2023-08-31T17:39:45.218Z,16.14
2023-08-31T17:42:12.213Z,16.04
2023-08-31T17:44:39.138Z,15.91
2023-08-31T17:47:06.356Z,15.81
2023-08-31T17:49:33.328Z,15.69
2023-08-31T17:52:00.568Z,15.58
2023-08-31T17:54:27.436Z,15.48
2023-08-31T17:56:54.485Z,15.33
2023-08-31T17:59:21.446Z,15.28
2023-08-31T18:01:48.656Z,15.23
2023-08-31T18:04:15.628Z,15.19
2023-08-31T18:06:42.877Z,15.15
2023-08-31T18:09:10.584Z,15.08
2023-08-31T18:11:37.834Z,14.99
2023-08-31T18:14:06.889Z,14.89
2023-08-31T18:16:34.021Z,14.76
2023-08-31T18:19:00.898Z,14.69
2023-08-31T18:21:27.815Z,14.58
2023-08-31T18:23:54.797Z,14.43
2023-08-31T18:26:22.719Z,14.36
2023-08-31T18:28:49.621Z,14.32
2023-08-31T18:31:18.011Z,14.24
2023-08-31T18:33:44.937Z,14.19
2023-08-31T18:36:11.995Z,14.11
2023-08-31T18:38:39.366Z,14.04
2023-08-31T18:41:06.453Z,14.03
2023-08-31T18:43:33.295Z,14.00
2023-08-31T18:46:00.224Z,13.94
2023-08-31T18:48:27.187Z,13.90
2023-08-31T18:51:01.075Z,13.97
2023-08-31T18:53:28.436Z,13.97
2023-08-31T18:55:59.698Z,13.94
2023-08-31T18:58:26.793Z,13.97
2023-08-31T19:00:53.770Z,13.94
2023-08-31T19:03:20.821Z,13.91
2023-08-31T19:05:52.064Z,13.89
2023-08-31T19:08:19.334Z,13.89
2023-08-31T19:10:46.334Z,13.90
2023-08-31T19:13:13.347Z,13.92
2023-08-31T19:15:40.275Z,13.88
2023-08-31T19:18:10.684Z,13.80
2023-08-31T19:20:39.537Z,13.75
2023-08-31T19:23:06.690Z,13.70
2023-08-31T19:25:33.850Z,13.70
2023-08-31T19:28:02.524Z,13.61
2023-08-31T19:30:30.139Z,13.58
2023-08-31T19:32:58.443Z,13.61
2023-08-31T19:35:55.122Z,13.63
2023-08-31T19:38:14.004Z,13.69
2023-08-31T19:40:41.143Z,13.70
2023-08-31T19:43:08.084Z,13.73
2023-08-31T19:45:35.217Z,13.66
2023-08-31T19:48:02.192Z,13.58
2023-08-31T19:50:30.477Z,13.54
2023-08-31T19:52:57.454Z,13.54
2023-08-31T19:55:24.541Z,13.57
2023-08-31T19:57:51.444Z,13.59
2023-08-31T20:00:23.591Z,13.62
2023-08-31T20:02:50.789Z,13.63
2023-08-31T20:05:21.960Z,13.61
2023-08-31T20:07:49.584Z,13.65
2023-08-31T20:10:17.337Z,13.60
2023-08-31T20:12:44.466Z,13.56
2023-08-31T20:15:11.569Z,13.60
2023-08-31T20:17:38.712Z,13.58
2023-08-31T20:20:06.476Z,13.55
2023-08-31T20:22:33.378Z,13.55
2023-08-31T20:25:01.196Z,13.51
2023-08-31T20:27:28.092Z,13.48
2023-08-31T20:29:55.127Z,13.47
2023-08-31T20:32:22.000Z,13.50
2023-08-31T20:34:49.327Z,13.49
2023-08-31T20:37:17.181Z,13.47
2023-08-31T20:39:45.289Z,13.45
2023-08-31T20:42:15.115Z,13.46
2023-08-31T20:44:42.164Z,13.45
2023-08-31T20:47:09.596Z,13.50
2023-08-31T20:49:37.224Z,13.51
2023-08-31T20:52:04.939Z,13.49
2023-08-31T20:54:31.892Z,13.52
2023-08-31T20:56:58.916Z,13.56
2023-08-31T20:59:27.007Z,13.55
2023-08-31T21:01:55.178Z,13.51
2023-08-31T21:04:22.041Z,13.50
2023-08-31T21:06:50.634Z,13.48
2023-08-31T21:09:17.673Z,13.53
2023-08-31T21:11:44.872Z,13.54
2023-08-31T21:14:11.924Z,13.56
2023-08-31T21:16:39.410Z,13.64
2023-08-31T21:19:06.555Z,13.68
2023-08-31T21:21:33.904Z,13.71
2023-08-31T21:24:00.977Z,13.76
2023-08-31T21:26:29.134Z,13.80
2023-08-31T21:28:56.216Z,13.92
2023-08-31T21:31:23.273Z,13.99
2023-08-31T21:33:50.335Z,14.02
2023-08-31T21:36:17.165Z,14.11
2023-08-31T21:38:44.576Z,14.15
2023-08-31T21:41:11.426Z,14.26
2023-08-31T21:43:38.475Z,14.29
2023-08-31T21:46:05.742Z,14.33
2023-08-31T21:48:32.947Z,14.33
2023-08-31T21:51:00.649Z,14.32
2023-08-31T21:53:27.673Z,14.33
2023-08-31T21:55:54.620Z,14.36
2023-08-31T21:58:21.798Z,14.41
2023-08-31T22:00:48.877Z,14.47
2023-08-31T22:03:16.033Z,14.47
2023-08-31T22:05:43.230Z,14.49
2023-08-31T22:08:12.110Z,14.42
2023-08-31T22:10:40.755Z,14.36
2023-08-31T22:13:08.553Z,14.30
2023-08-31T22:15:36.512Z,14.21
2023-08-31T22:18:05.093Z,14.20
2023-08-31T22:20:32.386Z,14.19
2023-08-31T22:23:00.882Z,14.26
2023-08-31T22:25:29.617Z,14.28
2023-08-31T22:27:58.448Z,14.32
2023-08-31T22:30:26.742Z,14.35
2023-08-31T22:32:55.382Z,14.29
2023-08-31T22:35:24.722Z,14.35
2023-08-31T22:37:52.522Z,14.26
2023-08-31T22:40:19.526Z,14.21
2023-08-31T22:42:46.683Z,14.16
2023-08-31T22:45:14.125Z,14.12
2023-08-31T22:47:41.291Z,14.12
2023-08-31T22:50:11.752Z,14.14
2023-08-31T22:52:39.006Z,14.15
2023-08-31T22:55:06.351Z,14.20
2023-08-31T22:57:35.288Z,14.26
2023-08-31T23:00:02.272Z,14.20
2023-08-31T23:02:29.343Z,14.16
2023-08-31T23:04:56.698Z,14.09
2023-08-31T23:07:23.751Z,14.15
2023-08-31T23:09:50.876Z,14.14
2023-08-31T23:12:17.893Z,14.13
2023-08-31T23:14:46.178Z,14.15
2023-08-31T23:17:13.540Z,14.16
2023-08-31T23:19:41.256Z,14.24
2023-08-31T23:22:08.385Z,14.31
2023-08-31T23:24:35.544Z,14.50
2023-08-31T23:27:02.606Z,14.46
2023-08-31T23:29:29.828Z,14.41
2023-08-31T23:31:56.753Z,14.41
2023-08-31T23:34:23.751Z,14.37
2023-08-31T23:36:51.959Z,14.36
2023-08-31T23:39:19.098Z,14.40
2023-08-31T23:41:45.954Z,14.41
2023-08-31T23:44:13.045Z,14.45
2023-08-31T23:46:40.057Z,14.55
2023-08-31T23:49:07.046Z,14.51
2023-08-31T23:51:35.677Z,14.50
2023-08-31T23:54:02.690Z,14.50
2023-08-31T23:56:29.564Z,14.50
2023-08-31T23:58:56.572Z,14.47
